If you wish to contribute or participate in the discussions about articles you are invited to join SKYbrary as a registered user

 Actions

Landivisiau Air Base

From SKYbrary Wiki

LFRJ
Airport
ICAO: LFRJ
Summary
Name Landivisiau Air Base
Region Europe
Territory France FR.gif
Location , Bretagne
Serving Landivisiau
Elevation 106.07 m
348 ft
348 ft106.07 m
Type medium airport
Coordinates 48° 31' 48.93" N, 4° 9' 5.91" W
Runways
Designator Length Width Surface ROPS
8/26 2700 m8,858.268 ft
45 m147.638 ft
CON /


METAR
Observation LFRJ 190400Z AUTO 06005KT CAVOK 11/10 Q1027 NOSIG
Station Landivisiau
Date/Time 19 September 2019 04:00:00
Wind direction 60°
Wind speed 05 kts
Lowest cloud amount clouds and visibility OK
Temperature 11°C
Dew point 10°C
Humidity 93%
QNH 1027 hPa
Weather condition n/a